createdAt,value
2022-11-18T00:02:15.958Z,96.47
2022-11-18T00:04:43.140Z,94.74
2022-11-18T00:07:09.853Z,95.32
2022-11-18T00:09:37.357Z,96.18
2022-11-18T00:12:23.287Z,95.47
2022-11-18T00:14:49.947Z,97.59
2022-11-18T00:17:16.639Z,95.49
2022-11-18T00:19:43.765Z,96.35
2022-11-18T00:22:12.656Z,97.05
2022-11-18T00:24:39.288Z,96.98
2022-11-18T00:27:06.465Z,96.79
2022-11-18T00:29:33.138Z,97.58
2022-11-18T00:31:59.782Z,96.90
2022-11-18T00:34:27.417Z,97.84
2022-11-18T00:36:56.070Z,97.67
2022-11-18T00:39:24.098Z,98.13
2022-11-18T00:42:09.477Z,98.12
2022-11-18T00:44:36.976Z,96.62
2022-11-18T00:47:03.992Z,97.08
2022-11-18T00:49:30.824Z,99.34
2022-11-18T00:51:57.601Z,98.54
2022-11-18T00:54:24.476Z,94.97
2022-11-18T00:56:51.345Z,96.86
2022-11-18T00:59:20.684Z,97.91
2022-11-18T01:01:49.109Z,97.41
2022-11-18T01:04:16.195Z,96.01
2022-11-18T01:06:42.845Z,95.75
2022-11-18T01:09:09.534Z,97.18
2022-11-18T01:11:54.737Z,96.22
2022-11-18T01:14:24.285Z,96.03
2022-11-18T01:16:54.202Z,97.19
2022-11-18T01:19:20.957Z,94.62
2022-11-18T01:21:47.585Z,95.75
2022-11-18T01:24:14.342Z,95.55
2022-11-18T01:26:41.410Z,95.43
2022-11-18T01:29:08.691Z,95.67
2022-11-18T01:31:35.367Z,95.93
2022-11-18T01:34:02.008Z,95.28
2022-11-18T01:36:28.660Z,96.55
2022-11-18T01:38:55.977Z,97.36
2022-11-18T01:41:26.362Z,95.48
2022-11-18T01:44:01.450Z,96.66
2022-11-18T01:46:30.483Z,96.25
2022-11-18T01:49:02.561Z,97.68
2022-11-18T01:51:33.762Z,97.25
2022-11-18T01:54:06.632Z,96.82
2022-11-18T01:56:38.180Z,97.94
2022-11-18T01:59:11.811Z,96.56
2022-11-18T02:01:38.530Z,96.35
2022-11-18T02:04:06.179Z,98.84
2022-11-18T02:06:33.423Z,99.39
2022-11-18T02:09:00.451Z,98.03
2022-11-18T02:11:45.869Z,99.17
2022-11-18T02:14:13.450Z,99.27
2022-11-18T02:17:22.804Z,98.71
2022-11-18T02:19:58.421Z,100.00
2022-11-18T02:22:46.376Z,99.15
2022-11-18T02:25:40.741Z,99.91
2022-11-18T02:28:29.160Z,100.00
2022-11-18T02:31:21.083Z,98.50
2022-11-18T02:33:57.466Z,99.23
2022-11-18T02:36:49.062Z,99.09
2022-11-18T02:39:20.843Z,100.00
2022-11-18T02:41:48.103Z,100.00
2022-11-18T02:44:16.691Z,100.00
2022-11-18T02:46:46.819Z,100.00
2022-11-18T02:49:18.552Z,99.35
2022-11-18T02:51:46.228Z,100.00
2022-11-18T02:54:13.833Z,99.86
2022-11-18T02:56:41.339Z,100.00
2022-11-18T02:59:07.960Z,100.00
2022-11-18T03:01:35.975Z,98.72
2022-11-18T03:04:02.785Z,100.00
2022-11-18T03:06:43.772Z,99.81
2022-11-18T03:09:37.154Z,100.00
2022-11-18T03:12:31.147Z,100.00
2022-11-18T03:15:10.694Z,99.86
2022-11-18T03:17:48.842Z,100.00
2022-11-18T03:20:23.352Z,100.00
2022-11-18T03:23:08.860Z,100.00
2022-11-18T03:25:47.823Z,100.00
2022-11-18T03:28:37.844Z,100.00
2022-11-18T03:31:12.452Z,100.00
2022-11-18T03:33:52.159Z,100.00
2022-11-18T03:36:21.277Z,100.00
2022-11-18T03:38:51.427Z,100.00
2022-11-18T03:41:18.964Z,100.00
2022-11-18T03:43:53.634Z,100.00
2022-11-18T03:46:39.130Z,100.00
2022-11-18T03:49:08.139Z,100.00
2022-11-18T03:51:42.685Z,100.00
2022-11-18T03:54:16.485Z,100.00
2022-11-18T03:56:47.586Z,100.00
2022-11-18T03:59:34.670Z,100.00
2022-11-18T04:02:07.149Z,100.00
2022-11-18T04:04:33.835Z,100.00
2022-11-18T04:07:10.125Z,100.00
2022-11-18T04:09:46.059Z,99.94
2022-11-18T04:12:16.067Z,99.45
2022-11-18T04:14:44.295Z,100.00
2022-11-18T04:17:16.288Z,98.74
2022-11-18T04:19:42.946Z,100.00
2022-11-18T04:22:10.106Z,100.00
2022-11-18T04:24:36.821Z,98.87
2022-11-18T04:27:04.270Z,100.00
2022-11-18T04:29:31.521Z,100.00
2022-11-18T04:31:58.884Z,100.00
2022-11-18T04:34:25.621Z,99.96
2022-11-18T04:36:52.332Z,99.95
2022-11-18T04:39:19.987Z,100.00
2022-11-18T04:41:55.704Z,100.00
2022-11-18T04:44:33.280Z,100.00
2022-11-18T04:47:05.464Z,100.00
2022-11-18T04:49:32.363Z,100.00
2022-11-18T04:51:59.476Z,100.00
2022-11-18T04:54:27.041Z,100.00
2022-11-18T04:56:54.766Z,100.00
2022-11-18T04:59:24.221Z,100.00
2022-11-18T05:01:51.634Z,100.00
2022-11-18T05:04:21.558Z,100.00
2022-11-18T05:06:48.637Z,100.00
2022-11-18T05:09:16.235Z,100.00
2022-11-18T05:12:01.723Z,100.00
2022-11-18T05:14:29.429Z,100.00
2022-11-18T05:16:57.105Z,100.00
2022-11-18T05:19:23.895Z,100.00
2022-11-18T05:21:50.890Z,100.00
2022-11-18T05:24:17.743Z,100.00
2022-11-18T05:26:44.398Z,100.00
2022-11-18T05:29:11.185Z,100.00
2022-11-18T05:31:37.914Z,100.00
2022-11-18T05:34:04.708Z,100.00
2022-11-18T05:36:31.342Z,100.00
2022-11-18T05:39:01.351Z,100.00
2022-11-18T05:41:46.552Z,100.00
2022-11-18T05:44:13.195Z,100.00
2022-11-18T05:46:39.874Z,100.00
2022-11-18T05:49:07.373Z,100.00
2022-11-18T05:51:34.412Z,100.00
2022-11-18T05:54:03.341Z,100.00
2022-11-18T05:56:38.911Z,100.00
2022-11-18T05:59:06.087Z,100.00
2022-11-18T06:01:51.643Z,100.00
2022-11-18T06:04:23.891Z,100.00
2022-11-18T06:06:52.488Z,100.00
2022-11-18T06:09:21.743Z,100.00
2022-11-18T06:11:53.293Z,100.00
2022-11-18T06:14:23.952Z,100.00
2022-11-18T06:16:55.595Z,100.00
2022-11-18T06:19:22.564Z,100.00
2022-11-18T06:21:49.462Z,100.00
2022-11-18T06:24:17.118Z,100.00
2022-11-18T06:26:44.040Z,100.00
2022-11-18T06:29:13.419Z,100.00
2022-11-18T06:31:39.985Z,100.00
2022-11-18T06:34:06.597Z,100.00
2022-11-18T06:36:33.216Z,100.00
2022-11-18T06:39:06.993Z,100.00
2022-11-18T06:41:34.097Z,100.00
2022-11-18T06:44:01.007Z,100.00
2022-11-18T06:46:46.211Z,100.00
2022-11-18T06:49:12.949Z,100.00
2022-11-18T06:51:40.170Z,100.00
2022-11-18T06:54:10.700Z,100.00
2022-11-18T06:56:37.827Z,100.00
2022-11-18T06:59:04.783Z,100.00
2022-11-18T07:01:34.500Z,100.00
2022-11-18T07:04:01.845Z,100.00
2022-11-18T07:06:30.384Z,100.00
2022-11-18T07:08:57.631Z,100.00
2022-11-18T07:11:26.132Z,100.00
2022-11-18T07:13:53.192Z,100.00
2022-11-18T07:16:22.215Z,99.84
2022-11-18T07:18:50.309Z,100.00
2022-11-18T07:21:19.255Z,100.00
2022-11-18T07:23:46.525Z,99.83
2022-11-18T07:26:13.737Z,98.88
2022-11-18T07:28:40.646Z,100.00
2022-11-18T07:31:13.448Z,99.60
2022-11-18T07:33:41.189Z,100.00
2022-11-18T07:36:19.183Z,99.38
2022-11-18T07:38:46.187Z,99.16
2022-11-18T07:41:19.160Z,100.00
2022-11-18T07:43:46.413Z,97.47
2022-11-18T07:46:14.369Z,97.13
2022-11-18T07:48:42.091Z,97.18
2022-11-18T07:51:10.160Z,96.44
2022-11-18T07:53:37.133Z,97.10
2022-11-18T07:56:04.752Z,98.47
2022-11-18T07:58:31.443Z,98.78
2022-11-18T08:00:58.132Z,98.38
2022-11-18T08:03:26.715Z,98.42
2022-11-18T08:05:54.869Z,98.13
2022-11-18T08:08:21.740Z,98.17
2022-11-18T08:10:48.354Z,98.02
2022-11-18T08:13:15.005Z,97.41
2022-11-18T08:15:42.732Z,98.30
2022-11-18T08:18:13.540Z,97.74
2022-11-18T08:20:40.803Z,96.03
2022-11-18T08:23:13.091Z,96.66
2022-11-18T08:25:42.203Z,95.81
2022-11-18T08:28:09.705Z,96.45
2022-11-18T08:30:36.647Z,94.70
2022-11-18T08:33:03.793Z,94.00
2022-11-18T08:35:32.316Z,94.46
2022-11-18T08:37:59.754Z,93.66
2022-11-18T08:40:27.428Z,92.20
2022-11-18T08:42:54.379Z,93.49
2022-11-18T08:45:21.006Z,91.39
2022-11-18T08:47:47.644Z,92.07
2022-11-18T08:50:14.278Z,90.78
2022-11-18T08:52:40.897Z,94.42
2022-11-18T08:55:07.682Z,92.18
2022-11-18T08:57:34.264Z,89.95
2022-11-18T09:00:01.024Z,91.04
2022-11-18T09:02:27.694Z,90.50
2022-11-18T09:04:54.367Z,88.88
2022-11-18T09:07:21.764Z,90.34
2022-11-18T09:09:48.527Z,90.17
2022-11-18T09:12:17.451Z,89.65
2022-11-18T09:17:34.711Z,90.90
2022-11-18T09:20:01.369Z,88.84
2022-11-18T09:22:28.035Z,89.78
2022-11-18T09:24:54.685Z,87.82
2022-11-18T09:27:21.297Z,88.92
2022-11-18T09:29:47.934Z,90.04
2022-11-18T09:32:14.637Z,85.92
2022-11-18T09:34:41.291Z,85.60
2022-11-18T09:37:07.949Z,86.18
2022-11-18T09:39:36.436Z,85.21
2022-11-18T09:42:23.742Z,83.51
2022-11-18T09:45:24.583Z,83.19
2022-11-18T09:47:52.085Z,82.43
2022-11-18T09:53:25.735Z,81.35
2022-11-18T09:55:52.832Z,80.89
2022-11-18T09:58:33.119Z,78.46
2022-11-18T10:01:00.302Z,79.35
2022-11-18T10:03:29.744Z,79.99
2022-11-18T10:06:09.464Z,77.91
2022-11-18T10:08:41.328Z,78.77
2022-11-18T10:11:17.623Z,77.11
2022-11-18T10:13:57.225Z,77.84
2022-11-18T10:16:33.151Z,78.34
2022-11-18T10:19:12.354Z,77.77
2022-11-18T10:21:47.941Z,78.42
2022-11-18T10:24:23.889Z,79.66
2022-11-18T10:26:56.826Z,80.02
2022-11-18T10:29:23.837Z,79.64
2022-11-18T10:31:59.482Z,78.12
2022-11-18T10:34:29.307Z,78.20
2022-11-18T10:37:28.165Z,77.07
2022-11-18T10:40:06.491Z,75.04
2022-11-18T10:42:42.846Z,75.99
2022-11-18T10:45:21.640Z,74.07
2022-11-18T10:48:17.282Z,72.20
2022-11-18T10:50:54.763Z,73.21
2022-11-18T10:53:35.435Z,71.34
2022-11-18T10:56:08.360Z,69.99
2022-11-18T10:58:37.666Z,71.69
2022-11-18T11:01:09.041Z,68.96
2022-11-18T11:03:37.961Z,68.35
2022-11-18T11:06:30.724Z,69.94
2022-11-18T11:09:30.413Z,66.81
2022-11-18T11:12:04.644Z,68.69
2022-11-18T11:14:58.331Z,68.05
2022-11-18T11:17:31.709Z,65.66
2022-11-18T11:20:14.660Z,65.36
2022-11-18T11:22:42.465Z,63.78
2022-11-18T11:25:20.256Z,65.28
2022-11-18T11:28:24.084Z,64.43
2022-11-18T11:31:13.719Z,63.80
2022-11-18T11:33:57.457Z,63.58
2022-11-18T11:37:01.555Z,65.37
2022-11-18T11:39:54.471Z,64.12
2022-11-18T11:42:40.532Z,64.90
2022-11-18T11:45:48.112Z,62.03
2022-11-18T11:48:23.745Z,64.63
2022-11-18T11:51:04.955Z,63.43
2022-11-18T11:54:10.307Z,64.10
2022-11-18T11:56:38.820Z,63.52
2022-11-18T11:59:06.529Z,63.32
2022-11-18T12:01:41.461Z,62.81
2022-11-18T12:04:29.822Z,59.91
2022-11-18T12:06:57.948Z,60.54
2022-11-18T12:09:33.549Z,59.35
2022-11-18T12:12:36.005Z,60.85
2022-11-18T12:15:14.703Z,60.25
2022-11-18T12:17:50.268Z,60.87
2022-11-18T12:20:36.432Z,60.15
2022-11-18T12:23:12.315Z,61.25
2022-11-18T12:25:48.012Z,61.44
2022-11-18T12:28:33.086Z,61.89
2022-11-18T12:31:18.114Z,61.07
2022-11-18T12:34:02.504Z,62.25
2022-11-18T12:36:39.985Z,60.96
2022-11-18T12:39:27.927Z,62.86
2022-11-18T12:42:20.627Z,62.43
2022-11-18T12:44:51.703Z,61.94
2022-11-18T12:47:41.293Z,61.01
2022-11-18T12:50:10.316Z,62.72
2022-11-18T12:52:36.853Z,62.77
2022-11-18T12:55:04.930Z,59.89
2022-11-18T12:57:33.922Z,59.98
2022-11-18T13:00:29.795Z,61.04
2022-11-18T13:02:58.696Z,59.86
2022-11-18T13:05:30.231Z,60.67
2022-11-18T13:08:14.609Z,61.98
2022-11-18T13:10:50.530Z,61.69
2022-11-18T13:13:34.042Z,61.56
2022-11-18T13:16:38.860Z,61.62
2022-11-18T13:19:05.810Z,61.00
2022-11-18T13:21:54.099Z,61.32
2022-11-18T13:24:22.483Z,64.61
2022-11-18T13:26:54.817Z,61.60
2022-11-18T13:29:36.521Z,62.39
2022-11-18T13:32:21.777Z,63.36
2022-11-18T13:34:50.835Z,62.15
2022-11-18T13:37:28.866Z,63.08
2022-11-18T13:39:55.585Z,63.34
2022-11-18T13:42:26.937Z,61.47
2022-11-18T13:44:55.555Z,62.96
2022-11-18T13:47:45.338Z,63.41
2022-11-18T13:50:17.347Z,64.60
2022-11-18T13:52:48.666Z,61.81
2022-11-18T13:55:20.173Z,62.39
2022-11-18T13:57:49.371Z,62.10
2022-11-18T14:00:29.849Z,63.89
2022-11-18T14:03:02.718Z,62.45
2022-11-18T14:05:29.643Z,62.44
2022-11-18T14:08:02.522Z,63.26
2022-11-18T14:10:34.099Z,65.46
2022-11-18T14:13:17.619Z,66.49
2022-11-18T14:15:44.665Z,66.97
2022-11-18T14:18:34.636Z,67.91
2022-11-18T14:21:02.844Z,66.29
2022-11-18T14:23:32.106Z,65.11
2022-11-18T14:26:03.563Z,67.22
2022-11-18T14:28:37.153Z,68.48
2022-11-18T14:31:23.564Z,68.25
2022-11-18T14:34:17.372Z,67.85
2022-11-18T14:36:45.010Z,68.42
2022-11-18T14:39:28.908Z,67.72
2022-11-18T14:41:56.442Z,69.58
2022-11-18T14:44:27.102Z,69.87
2022-11-18T14:47:22.889Z,68.98
2022-11-18T14:49:49.593Z,72.60
2022-11-18T14:52:16.392Z,72.66
2022-11-18T14:54:43.022Z,73.52
2022-11-18T14:57:15.008Z,73.64
2022-11-18T14:59:41.944Z,72.52
2022-11-18T15:02:16.773Z,75.35
2022-11-18T15:04:43.571Z,74.53
2022-11-18T15:07:18.599Z,75.57
2022-11-18T15:09:49.770Z,76.53
2022-11-18T15:12:16.348Z,76.13
2022-11-18T15:14:43.079Z,77.95
2022-11-18T15:17:12.361Z,78.38
2022-11-18T15:19:40.787Z,78.27
2022-11-18T15:22:07.895Z,80.16
2022-11-18T15:24:34.519Z,80.19
2022-11-18T15:27:05.145Z,81.43
2022-11-18T15:29:31.927Z,82.07
2022-11-18T15:31:59.931Z,81.60
2022-11-18T15:34:26.524Z,81.85
2022-11-18T15:36:53.409Z,82.48
2022-11-18T15:39:22.884Z,83.50
2022-11-18T15:41:49.605Z,84.38
2022-11-18T15:44:16.831Z,85.79
2022-11-18T15:46:45.466Z,86.88
2022-11-18T15:49:16.360Z,87.07
2022-11-18T15:51:43.102Z,87.23
2022-11-18T15:54:09.893Z,87.67
2022-11-18T15:56:37.547Z,85.49
2022-11-18T15:59:06.366Z,84.50
2022-11-18T16:01:35.560Z,86.25
2022-11-18T16:04:03.677Z,87.03
2022-11-18T16:06:30.382Z,89.03
2022-11-18T16:09:00.003Z,89.02
2022-11-18T16:11:47.495Z,89.49
2022-11-18T16:14:16.095Z,91.63
2022-11-18T16:16:43.855Z,92.71
2022-11-18T16:19:13.335Z,93.37
2022-11-18T16:21:47.021Z,94.65
2022-11-18T16:24:25.768Z,93.90
2022-11-18T16:26:52.941Z,93.64
2022-11-18T16:29:20.772Z,94.88
2022-11-18T16:31:55.203Z,96.44
2022-11-18T16:34:26.717Z,97.37
2022-11-18T16:36:55.061Z,97.43
2022-11-18T16:39:26.604Z,96.63
2022-11-18T16:41:54.687Z,96.30
2022-11-18T16:44:21.525Z,95.61
2022-11-18T16:46:50.083Z,95.66
2022-11-18T16:49:18.836Z,96.58
2022-11-18T16:51:47.783Z,97.36
2022-11-18T16:54:33.529Z,98.12
2022-11-18T16:57:00.126Z,98.41
2022-11-18T16:59:28.775Z,99.74
2022-11-18T17:01:56.957Z,100.00
2022-11-18T17:04:24.681Z,100.00
2022-11-18T17:06:51.498Z,100.00
2022-11-18T17:09:20.583Z,100.00
2022-11-18T17:11:48.036Z,100.00
2022-11-18T17:14:14.780Z,100.00
2022-11-18T17:16:41.697Z,99.48
2022-11-18T17:19:13.162Z,100.00
2022-11-18T17:21:41.191Z,100.00
2022-11-18T17:24:08.458Z,100.00
2022-11-18T17:26:35.122Z,100.00
2022-11-18T17:29:01.810Z,98.65
2022-11-18T17:31:29.084Z,99.27
2022-11-18T17:33:56.344Z,100.00
2022-11-18T17:36:25.383Z,100.00
2022-11-18T17:38:54.062Z,100.00
2022-11-18T17:41:41.452Z,100.00
2022-11-18T17:44:09.860Z,100.00
2022-11-18T17:46:38.518Z,100.00
2022-11-18T17:49:10.004Z,100.00
2022-11-18T17:51:36.673Z,100.00
2022-11-18T17:54:03.276Z,100.00
2022-11-18T17:56:29.901Z,100.00
2022-11-18T17:58:56.506Z,100.00
2022-11-18T18:01:23.550Z,100.00
2022-11-18T18:03:50.180Z,100.00
2022-11-18T18:06:19.090Z,100.00
2022-11-18T18:08:45.781Z,100.00
2022-11-18T18:11:17.532Z,100.00
2022-11-18T18:14:03.150Z,100.00
2022-11-18T18:16:32.224Z,100.00
2022-11-18T18:19:00.079Z,100.00
2022-11-18T18:21:27.226Z,100.00
2022-11-18T18:23:53.938Z,100.00
2022-11-18T18:26:20.569Z,100.00
2022-11-18T18:28:47.195Z,100.00
2022-11-18T18:31:15.261Z,100.00
2022-11-18T18:33:44.741Z,100.00
2022-11-18T18:36:14.230Z,100.00
2022-11-18T18:38:41.371Z,100.00
2022-11-18T18:41:10.614Z,100.00
2022-11-18T18:43:37.229Z,100.00
2022-11-18T18:46:29.298Z,100.00
2022-11-18T18:49:12.207Z,100.00
2022-11-18T18:51:43.456Z,100.00
2022-11-18T18:54:11.752Z,100.00
2022-11-18T18:56:41.264Z,100.00
2022-11-18T18:59:08.424Z,100.00
2022-11-18T19:01:35.849Z,100.00
2022-11-18T19:04:05.278Z,100.00
2022-11-18T19:06:57.883Z,100.00
2022-11-18T19:09:20.893Z,100.00
2022-11-18T19:12:07.487Z,100.00
2022-11-18T19:14:36.593Z,100.00
2022-11-18T19:17:10.107Z,100.00
2022-11-18T19:19:57.504Z,100.00
2022-11-18T19:22:25.163Z,100.00
2022-11-18T19:24:52.407Z,100.00
2022-11-18T19:27:19.840Z,100.00
2022-11-18T19:29:46.998Z,100.00
2022-11-18T19:32:13.933Z,100.00
2022-11-18T19:34:40.636Z,100.00
2022-11-18T19:37:07.370Z,100.00
2022-11-18T19:39:35.244Z,100.00
2022-11-18T19:42:01.924Z,100.00
2022-11-18T19:44:28.530Z,100.00
2022-11-18T19:46:55.230Z,100.00
2022-11-18T19:49:22.067Z,100.00
2022-11-18T19:51:49.141Z,100.00
2022-11-18T19:54:15.746Z,100.00
2022-11-18T19:56:42.446Z,100.00
2022-11-18T19:59:09.159Z,100.00
2022-11-18T20:01:35.925Z,100.00
2022-11-18T20:04:03.124Z,100.00
2022-11-18T20:06:29.961Z,100.00
2022-11-18T20:08:57.173Z,100.00
2022-11-18T20:11:24.031Z,100.00
2022-11-18T20:13:50.966Z,100.00
2022-11-18T20:16:24.995Z,100.00
2022-11-18T20:18:56.556Z,100.00
2022-11-18T20:21:26.388Z,100.00
2022-11-18T20:24:01.028Z,100.00
2022-11-18T20:26:35.073Z,100.00
2022-11-18T20:29:02.261Z,100.00
2022-11-18T20:31:29.205Z,100.00
2022-11-18T20:33:56.499Z,100.00
2022-11-18T20:36:25.229Z,100.00
2022-11-18T20:38:57.061Z,100.00
2022-11-18T20:41:26.908Z,100.00
2022-11-18T20:43:53.671Z,100.00
2022-11-18T20:46:21.913Z,100.00
2022-11-18T20:48:52.217Z,100.00
2022-11-18T20:51:21.052Z,100.00
2022-11-18T20:53:47.915Z,100.00
2022-11-18T20:56:17.309Z,100.00
2022-11-18T20:58:44.535Z,100.00
2022-11-18T21:01:30.114Z,100.00
2022-11-18T21:03:58.758Z,100.00
2022-11-18T21:06:27.677Z,100.00
2022-11-18T21:08:58.525Z,100.00
2022-11-18T21:11:25.613Z,100.00
2022-11-18T21:14:11.336Z,100.00
2022-11-18T21:16:37.996Z,100.00
2022-11-18T21:19:04.739Z,100.00
2022-11-18T21:21:48.870Z,100.00
2022-11-18T21:24:17.681Z,100.00
2022-11-18T21:26:45.796Z,100.00
2022-11-18T21:29:13.833Z,100.00
2022-11-18T21:31:40.790Z,100.00
2022-11-18T21:34:10.438Z,100.00
2022-11-18T21:36:41.473Z,100.00
2022-11-18T21:39:11.997Z,100.00
2022-11-18T21:41:39.112Z,100.00
2022-11-18T21:44:09.194Z,100.00
2022-11-18T21:46:37.558Z,100.00
2022-11-18T21:49:05.223Z,100.00
2022-11-18T21:51:33.113Z,100.00
2022-11-18T21:54:01.035Z,100.00
2022-11-18T21:56:30.582Z,100.00
2022-11-18T21:58:59.026Z,100.00
2022-11-18T22:01:28.261Z,100.00
2022-11-18T22:04:01.286Z,100.00
2022-11-18T22:06:30.043Z,100.00
2022-11-18T22:08:57.041Z,100.00
2022-11-18T22:11:25.584Z,100.00
2022-11-18T22:13:53.071Z,100.00
2022-11-18T22:16:22.368Z,100.00
2022-11-18T22:18:56.034Z,100.00
2022-11-18T22:21:26.580Z,100.00
2022-11-18T22:23:57.415Z,100.00
2022-11-18T22:26:24.050Z,100.00
2022-11-18T22:28:55.559Z,100.00
2022-11-18T22:31:23.869Z,100.00
2022-11-18T22:33:51.431Z,100.00
2022-11-18T22:36:19.737Z,100.00
2022-11-18T22:38:46.519Z,100.00
2022-11-18T22:41:37.487Z,100.00
2022-11-18T22:44:07.770Z,100.00
2022-11-18T22:46:35.635Z,100.00
2022-11-18T22:49:02.726Z,100.00
2022-11-18T22:51:29.368Z,100.00
2022-11-18T22:54:15.918Z,100.00
2022-11-18T22:56:42.621Z,100.00
2022-11-18T22:59:11.395Z,100.00
2022-11-18T23:01:38.073Z,100.00
2022-11-18T23:04:04.789Z,100.00
2022-11-18T23:06:31.398Z,100.00
2022-11-18T23:08:57.966Z,100.00
2022-11-18T23:11:43.208Z,100.00
2022-11-18T23:14:10.316Z,100.00
2022-11-18T23:16:39.565Z,100.00
2022-11-18T23:19:11.163Z,100.00
2022-11-18T23:21:37.838Z,100.00
2022-11-18T23:24:04.807Z,100.00
2022-11-18T23:26:33.396Z,100.00
2022-11-18T23:29:00.035Z,100.00
2022-11-18T23:31:27.425Z,100.00
2022-11-18T23:33:55.071Z,100.00
2022-11-18T23:36:22.145Z,100.00
2022-11-18T23:38:49.318Z,100.00
2022-11-18T23:41:16.993Z,100.00
2022-11-18T23:43:46.907Z,100.00
2022-11-18T23:46:13.826Z,100.00
2022-11-18T23:48:41.884Z,100.00
2022-11-18T23:51:12.279Z,100.00
2022-11-18T23:53:39.751Z,100.00
2022-11-18T23:56:15.263Z,100.00
2022-11-18T23:58:44.343Z,100.00
